createdAt,value
2022-10-26T00:01:25.596Z,6.13
2022-10-26T00:03:54.299Z,7.03
2022-10-26T00:06:24.774Z,7.15
2022-10-26T00:08:51.840Z,6.68
2022-10-26T00:11:19.531Z,6.82
2022-10-26T00:13:46.674Z,6.55
2022-10-26T00:16:22.676Z,6.32
2022-10-26T00:18:50.087Z,6.28
2022-10-26T00:21:17.795Z,6.28
2022-10-26T00:23:44.919Z,6.65
2022-10-26T00:26:12.122Z,6.25
2022-10-26T00:28:38.818Z,6.13
2022-10-26T00:31:13.655Z,5.75
2022-10-26T00:33:40.378Z,6.05
2022-10-26T00:36:09.330Z,6.40
2022-10-26T00:38:36.382Z,6.85
2022-10-26T00:41:03.501Z,6.65
2022-10-26T00:43:30.118Z,6.93
2022-10-26T00:45:58.705Z,6.22
2022-10-26T00:48:32.457Z,7.38
2022-10-26T00:51:02.745Z,7.43
2022-10-26T00:53:30.337Z,7.30
2022-10-26T00:55:57.302Z,6.65
2022-10-26T00:58:26.106Z,7.68
2022-10-26T01:00:53.105Z,7.40
2022-10-26T01:03:20.854Z,7.07
2022-10-26T01:05:49.377Z,6.68
2022-10-26T01:08:17.800Z,7.18
2022-10-26T01:10:45.357Z,7.45
2022-10-26T01:13:13.367Z,7.40
2022-10-26T01:16:17.014Z,7.05
2022-10-26T01:19:09.112Z,7.88
2022-10-26T01:21:38.911Z,7.53
2022-10-26T01:24:14.235Z,7.47
2022-10-26T01:27:06.355Z,7.75
2022-10-26T01:30:06.814Z,8.30
2022-10-26T01:32:44.388Z,8.15
2022-10-26T01:35:21.488Z,8.98
2022-10-26T01:38:13.541Z,8.05
2022-10-26T01:40:54.375Z,8.13
2022-10-26T01:43:22.585Z,8.60
2022-10-26T01:45:51.524Z,9.02
2022-10-26T01:48:20.814Z,8.30
2022-10-26T01:50:50.448Z,8.70
2022-10-26T01:53:18.935Z,8.32
2022-10-26T01:55:55.648Z,8.07
2022-10-26T01:59:12.652Z,8.80
2022-10-26T02:01:47.819Z,9.30
2022-10-26T02:04:49.013Z,8.30
2022-10-26T02:07:25.126Z,8.10
2022-10-26T02:10:10.281Z,8.75
2022-10-26T02:13:01.692Z,8.27
2022-10-26T02:16:06.015Z,9.13
2022-10-26T02:18:47.908Z,7.97
2022-10-26T02:21:22.702Z,9.07
2022-10-26T02:23:51.880Z,8.85
2022-10-26T02:26:22.474Z,8.93
2022-10-26T02:28:51.602Z,8.90
2022-10-26T02:31:20.199Z,8.30
2022-10-26T02:33:53.089Z,9.25
2022-10-26T02:36:26.719Z,8.65
2022-10-26T02:38:55.651Z,9.15
2022-10-26T02:41:23.718Z,9.60
2022-10-26T02:44:00.385Z,9.15
2022-10-26T02:46:28.535Z,9.13
2022-10-26T02:48:56.251Z,9.80
2022-10-26T02:51:44.992Z,9.82
2022-10-26T02:54:26.872Z,9.27
2022-10-26T02:57:04.531Z,9.88
2022-10-26T02:59:35.230Z,9.85
2022-10-26T03:02:02.978Z,9.85
2022-10-26T03:04:31.163Z,8.55
2022-10-26T03:06:58.252Z,8.95
2022-10-26T03:09:25.694Z,10.57
2022-10-26T03:11:53.176Z,9.90
2022-10-26T03:14:20.520Z,10.93
2022-10-26T03:16:47.281Z,10.02
2022-10-26T03:19:14.000Z,9.35
2022-10-26T03:21:42.179Z,10.50
2022-10-26T03:24:09.399Z,9.48
2022-10-26T03:26:36.188Z,11.27
2022-10-26T03:29:03.096Z,10.48
2022-10-26T03:31:29.794Z,9.98
2022-10-26T03:33:56.491Z,9.02
2022-10-26T03:36:23.140Z,10.15
2022-10-26T03:38:49.783Z,10.20
2022-10-26T03:41:16.381Z,10.23
2022-10-26T03:43:43.066Z,10.15
2022-10-26T03:46:09.719Z,10.75
2022-10-26T03:48:36.511Z,9.52
2022-10-26T03:51:03.199Z,9.65
2022-10-26T03:53:29.838Z,10.98
2022-10-26T03:55:56.475Z,10.10
2022-10-26T03:58:23.258Z,10.18
2022-10-26T04:00:50.223Z,9.05
2022-10-26T04:03:17.112Z,9.77
2022-10-26T04:05:43.771Z,10.82
2022-10-26T04:08:10.505Z,9.95
2022-10-26T04:10:37.223Z,10.38
2022-10-26T04:13:03.913Z,9.80
2022-10-26T04:15:30.683Z,9.15
2022-10-26T04:17:59.497Z,8.90
2022-10-26T04:20:27.430Z,10.57
2022-10-26T04:23:02.569Z,9.60
2022-10-26T04:25:32.977Z,9.82
2022-10-26T04:28:02.320Z,10.05
2022-10-26T04:30:29.304Z,9.68
2022-10-26T04:32:56.375Z,7.97
2022-10-26T04:35:23.071Z,8.93
2022-10-26T04:37:49.971Z,9.35
2022-10-26T04:40:16.894Z,8.55
2022-10-26T04:42:45.678Z,9.27
2022-10-26T04:45:14.270Z,9.68
2022-10-26T04:47:41.467Z,9.57
2022-10-26T04:50:09.714Z,8.82
2022-10-26T04:52:36.807Z,9.13
2022-10-26T04:55:06.002Z,8.45
2022-10-26T04:57:34.217Z,9.48
2022-10-26T05:00:02.368Z,9.18
2022-10-26T05:02:29.565Z,8.77
2022-10-26T05:04:56.487Z,8.40
2022-10-26T05:07:23.208Z,8.65
2022-10-26T05:09:49.845Z,8.57
2022-10-26T05:12:16.518Z,9.25
2022-10-26T05:14:45.985Z,8.05
2022-10-26T05:17:12.908Z,8.80
2022-10-26T05:19:39.849Z,8.63
2022-10-26T05:22:06.488Z,9.02
2022-10-26T05:24:33.172Z,9.27
2022-10-26T05:27:00.162Z,8.75
2022-10-26T05:29:26.817Z,8.57
2022-10-26T05:31:53.555Z,8.63
2022-10-26T05:34:20.179Z,8.05
2022-10-26T05:36:46.791Z,9.05
2022-10-26T05:39:13.454Z,8.57
2022-10-26T05:41:40.084Z,7.75
2022-10-26T05:44:06.724Z,8.55
2022-10-26T05:46:33.339Z,8.32
2022-10-26T05:48:59.942Z,8.35
2022-10-26T05:51:26.589Z,7.93
2022-10-26T05:53:56.502Z,7.15
2022-10-26T05:56:41.843Z,7.70
2022-10-26T05:59:16.263Z,8.25
2022-10-26T06:01:52.133Z,8.38
2022-10-26T06:04:49.068Z,7.30
2022-10-26T06:07:19.260Z,6.90
2022-10-26T06:09:47.059Z,8.07
2022-10-26T06:12:16.902Z,6.40
2022-10-26T06:14:46.311Z,6.97
2022-10-26T06:17:28.915Z,7.60
2022-10-26T06:20:14.487Z,6.47
2022-10-26T06:22:59.050Z,7.18
2022-10-26T06:25:47.323Z,7.70
2022-10-26T06:28:47.420Z,6.40
2022-10-26T06:31:16.883Z,6.88
2022-10-26T06:33:43.592Z,6.53
2022-10-26T06:36:23.117Z,6.68
2022-10-26T06:39:16.659Z,7.40
2022-10-26T06:41:43.620Z,7.15
2022-10-26T06:44:21.731Z,6.45
2022-10-26T06:47:03.622Z,6.75
2022-10-26T06:49:38.224Z,6.57
2022-10-26T06:52:10.561Z,6.78
2022-10-26T06:54:51.920Z,7.22
2022-10-26T06:57:28.318Z,7.22
2022-10-26T07:00:02.887Z,5.72
2022-10-26T07:02:29.708Z,6.10
2022-10-26T07:04:56.516Z,5.75
2022-10-26T07:07:26.414Z,7.30
2022-10-26T07:09:53.194Z,6.75
2022-10-26T07:12:19.939Z,7.13
2022-10-26T07:14:46.891Z,5.88
2022-10-26T07:17:13.782Z,5.38
2022-10-26T07:19:40.509Z,5.47
2022-10-26T07:22:07.462Z,6.57
2022-10-26T07:24:34.184Z,5.63
2022-10-26T07:27:00.803Z,5.70
2022-10-26T07:29:28.001Z,5.93
2022-10-26T07:34:26.273Z,6.00
2022-10-26T07:36:52.988Z,6.10
2022-10-26T07:39:19.651Z,5.90
2022-10-26T07:41:47.068Z,5.88
2022-10-26T07:44:13.760Z,5.70
2022-10-26T07:46:40.446Z,6.55
2022-10-26T07:49:07.134Z,5.60
2022-10-26T07:51:33.806Z,6.00
2022-10-26T07:54:00.461Z,5.70
2022-10-26T07:56:27.182Z,5.60
2022-10-26T07:58:54.616Z,5.70
2022-10-26T08:01:21.971Z,6.10
2022-10-26T08:03:52.442Z,5.13
2022-10-26T08:06:19.302Z,5.90
2022-10-26T08:08:47.733Z,5.63
2022-10-26T08:11:15.653Z,6.25
2022-10-26T08:13:42.692Z,5.60
2022-10-26T08:16:09.683Z,5.93
2022-10-26T08:18:36.531Z,5.70
2022-10-26T08:21:11.381Z,5.82
2022-10-26T08:23:38.536Z,5.80
2022-10-26T08:26:05.777Z,5.30
2022-10-26T08:28:32.427Z,5.82
2022-10-26T08:30:59.088Z,5.32
2022-10-26T08:33:25.937Z,5.57
2022-10-26T08:35:57.649Z,6.18
2022-10-26T08:38:24.740Z,5.83
2022-10-26T08:40:52.903Z,6.28
2022-10-26T08:43:32.241Z,6.32
2022-10-26T08:46:28.256Z,6.10
2022-10-26T08:49:00.581Z,5.50
2022-10-26T08:51:35.412Z,5.35
2022-10-26T08:54:22.295Z,5.80
2022-10-26T08:56:59.032Z,5.95
2022-10-26T08:59:48.745Z,5.10
2022-10-26T09:02:17.600Z,4.75
2022-10-26T09:04:44.848Z,4.80
2022-10-26T09:07:39.996Z,5.68
2022-10-26T09:10:29.878Z,5.47
2022-10-26T09:13:25.808Z,5.43
2022-10-26T09:16:16.124Z,5.07
2022-10-26T09:19:21.640Z,4.68
2022-10-26T09:21:52.919Z,4.93
2022-10-26T09:24:27.742Z,4.72
2022-10-26T09:26:58.204Z,4.45
2022-10-26T09:29:39.595Z,4.15
2022-10-26T09:32:13.633Z,4.68
2022-10-26T09:34:52.299Z,4.70
2022-10-26T09:37:25.569Z,4.35
2022-10-26T09:40:28.819Z,5.00
2022-10-26T09:45:34.842Z,4.57
2022-10-26T09:48:10.047Z,4.82
2022-10-26T09:50:39.312Z,3.97
2022-10-26T09:53:06.214Z,4.45
2022-10-26T09:55:34.353Z,3.97
2022-10-26T09:58:03.775Z,4.13
2022-10-26T10:00:31.100Z,4.28
2022-10-26T10:02:58.926Z,3.45
2022-10-26T10:08:26.276Z,2.72
2022-10-26T10:11:03.494Z,3.58
2022-10-26T10:13:32.701Z,2.92
2022-10-26T10:16:23.410Z,3.08
2022-10-26T10:18:58.934Z,3.60
2022-10-26T10:21:48.791Z,4.43
2022-10-26T10:24:33.419Z,3.55
2022-10-26T10:27:17.565Z,3.15
2022-10-26T10:29:46.968Z,3.70
2022-10-26T10:32:30.255Z,3.53
2022-10-26T10:34:58.918Z,2.90
2022-10-26T10:37:27.467Z,3.80
2022-10-26T10:40:16.640Z,3.20
2022-10-26T10:42:47.696Z,3.20
2022-10-26T10:45:26.199Z,3.30
2022-10-26T10:48:12.656Z,3.05
2022-10-26T10:50:53.903Z,4.00
2022-10-26T10:53:50.523Z,3.47
2022-10-26T10:56:19.915Z,3.47
2022-10-26T10:58:57.087Z,3.50
2022-10-26T11:01:30.710Z,3.28
2022-10-26T11:04:26.894Z,3.08
2022-10-26T11:06:59.448Z,2.95
2022-10-26T11:09:29.323Z,4.05
2022-10-26T11:12:06.761Z,3.60
2022-10-26T11:14:38.878Z,2.60
2022-10-26T11:17:21.454Z,3.30
2022-10-26T11:20:00.062Z,2.80
2022-10-26T11:22:33.643Z,3.40
2022-10-26T11:25:16.860Z,3.45
2022-10-26T11:27:54.332Z,3.08
2022-10-26T11:30:25.497Z,3.13
2022-10-26T11:32:55.091Z,3.28
2022-10-26T11:35:28.057Z,3.28
2022-10-26T11:38:45.470Z,2.80
2022-10-26T11:41:25.855Z,2.88
2022-10-26T11:44:04.711Z,2.80
2022-10-26T11:46:42.885Z,3.30
2022-10-26T11:49:20.995Z,3.58
2022-10-26T11:51:53.324Z,3.58
2022-10-26T11:54:38.631Z,3.45
2022-10-26T11:57:05.850Z,3.28
2022-10-26T11:59:42.499Z,3.05
2022-10-26T12:02:23.051Z,3.33
2022-10-26T12:05:04.952Z,3.00
2022-10-26T12:07:35.945Z,3.70
2022-10-26T12:10:06.483Z,3.38
2022-10-26T12:12:42.341Z,3.45
2022-10-26T12:16:02.516Z,3.55
2022-10-26T12:18:56.697Z,4.05
2022-10-26T12:21:31.773Z,3.50
2022-10-26T12:24:03.023Z,4.05
2022-10-26T12:26:29.993Z,3.53
2022-10-26T12:29:02.853Z,3.13
2022-10-26T12:31:32.801Z,3.00
2022-10-26T12:34:00.644Z,3.50
2022-10-26T12:36:47.564Z,3.55
2022-10-26T12:39:36.527Z,3.80
2022-10-26T12:42:05.949Z,3.90
2022-10-26T12:44:37.153Z,3.75
2022-10-26T12:47:05.319Z,3.25
2022-10-26T12:50:05.753Z,3.92
2022-10-26T12:53:21.385Z,3.60
2022-10-26T12:55:54.239Z,3.45
2022-10-26T12:58:21.335Z,3.60
2022-10-26T13:00:59.999Z,3.67
2022-10-26T13:03:34.921Z,3.50
2022-10-26T13:06:34.363Z,3.50
2022-10-26T13:09:20.017Z,4.35
2022-10-26T13:11:54.592Z,4.13
2022-10-26T13:14:32.876Z,4.22
2022-10-26T13:17:01.716Z,4.70
2022-10-26T13:19:33.098Z,4.47
2022-10-26T13:22:00.752Z,4.13
2022-10-26T13:24:31.120Z,3.78
2022-10-26T13:27:07.989Z,3.78
2022-10-26T13:30:03.562Z,3.53
2022-10-26T13:32:35.512Z,4.15
2022-10-26T13:35:03.666Z,4.47
2022-10-26T13:37:34.599Z,4.28
2022-10-26T13:40:05.003Z,4.70
2022-10-26T13:42:45.822Z,4.93
2022-10-26T13:45:20.495Z,4.85
2022-10-26T13:48:01.533Z,4.90
2022-10-26T13:50:41.139Z,4.70
2022-10-26T13:53:37.610Z,5.63
2022-10-26T13:56:21.646Z,4.13
2022-10-26T13:59:00.582Z,4.75
2022-10-26T14:01:28.617Z,4.60
2022-10-26T14:03:55.756Z,4.22
2022-10-26T14:06:35.945Z,5.35
2022-10-26T14:09:12.008Z,4.10
2022-10-26T14:11:58.197Z,4.22
2022-10-26T14:14:29.497Z,4.45
2022-10-26T14:16:56.980Z,3.88
2022-10-26T14:19:28.750Z,4.75
2022-10-26T14:21:55.944Z,5.05
2022-10-26T14:24:46.195Z,3.92
2022-10-26T14:27:22.908Z,4.85
2022-10-26T14:30:20.579Z,5.05
2022-10-26T14:32:41.292Z,4.88
2022-10-26T14:35:12.941Z,4.80
2022-10-26T14:38:02.119Z,4.80
2022-10-26T14:40:34.770Z,5.00
2022-10-26T14:43:04.636Z,5.45
2022-10-26T14:45:47.979Z,4.22
2022-10-26T14:48:35.890Z,5.25
2022-10-26T14:51:10.662Z,5.65
2022-10-26T14:53:47.398Z,4.25
2022-10-26T14:56:25.672Z,5.03
2022-10-26T14:58:53.733Z,5.93
2022-10-26T15:01:23.660Z,5.10
2022-10-26T15:04:13.760Z,5.70
2022-10-26T15:06:43.365Z,4.60
2022-10-26T15:09:33.351Z,5.80
2022-10-26T15:12:02.785Z,4.75
2022-10-26T15:14:29.600Z,5.45
2022-10-26T15:16:58.115Z,4.43
2022-10-26T15:19:27.136Z,4.53
2022-10-26T15:21:54.617Z,4.90
2022-10-26T15:24:21.239Z,5.10
2022-10-26T15:26:48.205Z,5.03
2022-10-26T15:29:34.229Z,4.88
2022-10-26T15:32:01.819Z,4.60
2022-10-26T15:34:28.599Z,4.53
2022-10-26T15:36:56.045Z,3.90
2022-10-26T15:39:22.691Z,4.55
2022-10-26T15:41:50.227Z,3.55
2022-10-26T15:44:21.156Z,4.00
2022-10-26T15:46:49.045Z,3.97
2022-10-26T15:49:18.900Z,3.72
2022-10-26T15:51:49.304Z,4.78
2022-10-26T15:54:16.003Z,4.13
2022-10-26T15:56:47.663Z,5.63
2022-10-26T15:59:17.383Z,4.47
2022-10-26T16:01:44.628Z,4.68
2022-10-26T16:04:12.203Z,4.03
2022-10-26T16:06:41.027Z,4.28
2022-10-26T16:09:13.398Z,3.80
2022-10-26T16:11:40.035Z,3.83
2022-10-26T16:14:06.806Z,3.85
2022-10-26T16:16:33.469Z,4.00
2022-10-26T16:19:30.464Z,4.43
2022-10-26T16:21:50.233Z,4.28
2022-10-26T16:24:16.910Z,4.50
2022-10-26T16:26:43.547Z,3.92
2022-10-26T16:29:10.191Z,4.57
2022-10-26T16:31:36.891Z,4.18
2022-10-26T16:34:04.303Z,4.43
2022-10-26T16:36:33.972Z,4.38
2022-10-26T16:41:33.073Z,4.10
2022-10-26T16:43:59.735Z,4.38
2022-10-26T16:46:26.452Z,4.63
2022-10-26T16:48:53.149Z,4.38
2022-10-26T16:51:24.420Z,5.05
2022-10-26T16:53:53.125Z,4.93
2022-10-26T16:56:22.446Z,4.10
2022-10-26T16:58:49.663Z,4.57
2022-10-26T17:01:18.424Z,4.20
2022-10-26T17:03:46.688Z,5.20
2022-10-26T17:06:14.001Z,4.13
2022-10-26T17:08:40.995Z,4.53
2022-10-26T17:11:10.399Z,3.53
2022-10-26T17:13:38.821Z,3.80
2022-10-26T17:16:08.035Z,4.57
2022-10-26T17:18:34.709Z,4.43
2022-10-26T17:21:01.756Z,3.53
2022-10-26T17:23:28.449Z,3.85
2022-10-26T17:25:55.084Z,4.03
2022-10-26T17:28:21.736Z,4.07
2022-10-26T17:30:48.494Z,3.70
2022-10-26T17:33:15.179Z,4.95
2022-10-26T17:35:41.815Z,4.15
2022-10-26T17:38:08.459Z,4.80
2022-10-26T17:40:35.102Z,5.47
2022-10-26T17:43:01.783Z,4.70
2022-10-26T17:45:28.471Z,5.50
2022-10-26T17:47:55.098Z,5.55
2022-10-26T17:50:21.735Z,5.45
2022-10-26T17:52:48.441Z,5.97
2022-10-26T17:55:15.265Z,6.32
2022-10-26T17:57:42.365Z,5.97
2022-10-26T18:00:09.631Z,6.38
2022-10-26T18:02:39.988Z,6.10
2022-10-26T18:05:07.878Z,6.95
2022-10-26T18:07:34.955Z,6.60
2022-10-26T18:10:13.946Z,6.38
2022-10-26T18:12:48.544Z,5.72
2022-10-26T18:15:15.426Z,6.03
2022-10-26T18:17:42.189Z,6.25
2022-10-26T18:20:09.478Z,6.43
2022-10-26T18:22:36.130Z,5.93
2022-10-26T18:25:02.812Z,5.25
2022-10-26T18:27:30.180Z,6.10
2022-10-26T18:29:56.835Z,6.38
2022-10-26T18:32:23.528Z,7.25
2022-10-26T18:34:50.163Z,6.55
2022-10-26T18:37:16.823Z,6.22
2022-10-26T18:39:43.464Z,6.93
2022-10-26T18:42:10.146Z,6.47
2022-10-26T18:44:36.756Z,6.28
2022-10-26T18:47:04.234Z,6.65
2022-10-26T18:49:30.881Z,7.95
2022-10-26T18:51:58.131Z,6.82
2022-10-26T18:54:27.210Z,7.53
2022-10-26T18:56:57.458Z,6.90
2022-10-26T18:59:24.115Z,8.30
2022-10-26T19:01:50.994Z,7.13
2022-10-26T19:04:18.234Z,7.10
2022-10-26T19:06:47.468Z,6.38
2022-10-26T19:09:18.744Z,7.75
2022-10-26T19:11:47.654Z,6.85
2022-10-26T19:14:14.340Z,6.20
2022-10-26T19:16:45.990Z,6.30
2022-10-26T19:19:14.085Z,6.55
2022-10-26T19:21:40.751Z,5.80
2022-10-26T19:24:13.046Z,6.95
2022-10-26T19:26:43.390Z,7.13
2022-10-26T19:29:15.863Z,6.53
2022-10-26T19:31:43.973Z,7.05
2022-10-26T19:34:11.721Z,7.00
2022-10-26T19:36:39.573Z,7.05
2022-10-26T19:39:07.375Z,6.97
2022-10-26T19:41:34.069Z,6.55
2022-10-26T19:44:00.756Z,6.47
2022-10-26T19:46:29.233Z,7.10
2022-10-26T19:48:59.383Z,6.30
2022-10-26T19:51:27.752Z,6.05
2022-10-26T19:53:57.837Z,6.38
2022-10-26T19:56:28.724Z,7.05
2022-10-26T19:58:55.767Z,6.10
2022-10-26T20:01:22.709Z,5.78
2022-10-26T20:03:49.430Z,5.78
2022-10-26T20:06:18.073Z,5.90
2022-10-26T20:08:47.167Z,5.88
2022-10-26T20:11:15.766Z,6.55
2022-10-26T20:13:44.575Z,6.15
2022-10-26T20:16:12.324Z,5.80
2022-10-26T20:18:42.656Z,5.80
2022-10-26T20:21:15.981Z,5.15
2022-10-26T20:23:43.488Z,5.35
2022-10-26T20:26:16.430Z,5.05
2022-10-26T20:28:47.791Z,5.05
2022-10-26T20:31:14.574Z,5.25
2022-10-26T20:33:41.275Z,4.72
2022-10-26T20:36:08.475Z,4.85
2022-10-26T20:38:35.624Z,4.40
2022-10-26T20:41:06.117Z,4.65
2022-10-26T20:43:38.836Z,4.45
2022-10-26T20:46:06.197Z,3.97
2022-10-26T20:48:33.139Z,3.47
2022-10-26T20:51:19.729Z,3.80
2022-10-26T20:54:05.310Z,5.03
2022-10-26T20:56:33.577Z,5.00
2022-10-26T20:59:03.339Z,4.05
2022-10-26T21:01:32.369Z,4.00
2022-10-26T21:04:01.432Z,3.92
2022-10-26T21:06:29.101Z,3.50
2022-10-26T21:08:56.993Z,3.97
2022-10-26T21:11:25.565Z,3.90
2022-10-26T21:13:53.896Z,4.18
2022-10-26T21:18:48.915Z,4.20
2022-10-26T21:21:15.610Z,3.60
2022-10-26T21:23:42.340Z,4.22
2022-10-26T21:26:09.633Z,4.10
2022-10-26T21:28:39.292Z,4.07
2022-10-26T21:31:08.115Z,4.25
2022-10-26T21:33:35.144Z,3.80
2022-10-26T21:36:03.515Z,3.63
2022-10-26T21:38:31.254Z,4.40
2022-10-26T21:41:07.313Z,3.97
2022-10-26T21:43:35.077Z,4.15
2022-10-26T21:46:03.925Z,4.10
2022-10-26T21:48:32.050Z,3.97
2022-10-26T21:51:01.505Z,4.43
2022-10-26T21:53:28.502Z,4.07
2022-10-26T21:56:06.217Z,4.40
2022-10-26T21:58:32.879Z,4.50
2022-10-26T22:01:14.677Z,4.30
2022-10-26T22:03:42.135Z,4.57
2022-10-26T22:06:13.903Z,4.10
2022-10-26T22:08:40.742Z,3.78
2022-10-26T22:11:13.088Z,4.80
2022-10-26T22:13:42.516Z,3.90
2022-10-26T22:16:12.724Z,4.22
2022-10-26T22:18:41.743Z,4.32
2022-10-26T22:21:09.218Z,4.28
2022-10-26T22:23:38.612Z,4.20
2022-10-26T22:26:10.751Z,4.25
2022-10-26T22:28:42.438Z,4.50
2022-10-26T22:31:12.784Z,4.10
2022-10-26T22:33:39.944Z,4.65
2022-10-26T22:36:09.567Z,5.07
2022-10-26T22:38:36.472Z,3.92
2022-10-26T22:41:03.817Z,4.32
2022-10-26T22:43:30.786Z,4.72
2022-10-26T22:46:23.932Z,4.00
2022-10-26T22:49:00.474Z,4.32
2022-10-26T22:51:31.261Z,4.28
2022-10-26T22:53:59.799Z,3.92
2022-10-26T22:56:27.836Z,4.13
2022-10-26T22:58:54.678Z,4.30
2022-10-26T23:01:31.152Z,3.88
2022-10-26T23:03:58.359Z,4.97
2022-10-26T23:06:27.395Z,4.80
2022-10-26T23:08:54.086Z,4.90
2022-10-26T23:11:22.971Z,4.20
2022-10-26T23:13:54.196Z,5.05
2022-10-26T23:16:21.676Z,4.57
2022-10-26T23:18:48.920Z,5.05
2022-10-26T23:21:16.156Z,4.53
2022-10-26T23:23:42.832Z,4.05
2022-10-26T23:26:15.075Z,3.92
2022-10-26T23:28:42.594Z,4.82
2022-10-26T23:31:17.492Z,4.43
2022-10-26T23:33:44.427Z,4.82
2022-10-26T23:36:11.598Z,4.32
2022-10-26T23:38:38.283Z,4.20
2022-10-26T23:41:07.112Z,4.45
2022-10-26T23:43:36.174Z,4.20
2022-10-26T23:46:03.459Z,4.95
2022-10-26T23:48:30.461Z,4.93
2022-10-26T23:50:57.419Z,4.50
2022-10-26T23:53:25.476Z,4.45
2022-10-26T23:55:52.241Z,4.45
2022-10-26T23:58:19.499Z,4.78
